createdAt,value
2018-07-12T00:00:28.909Z,0.00
2018-07-12T00:01:28.894Z,0.00
2018-07-12T00:02:28.879Z,0.00
2018-07-12T00:03:28.863Z,0.00
2018-07-12T00:04:28.854Z,0.00
2018-07-12T00:05:28.834Z,0.00
2018-07-12T00:06:28.826Z,0.00
2018-07-12T00:07:28.829Z,0.00
2018-07-12T00:08:28.897Z,0.00
2018-07-12T00:09:28.782Z,0.00
2018-07-12T00:10:28.757Z,0.00
2018-07-12T00:11:28.744Z,0.00
2018-07-12T00:12:28.727Z,0.00
2018-07-12T00:13:28.711Z,0.00
2018-07-12T00:14:28.703Z,0.00
2018-07-12T00:15:28.683Z,0.00
2018-07-12T00:16:28.671Z,0.00
2018-07-12T00:17:28.654Z,0.00
2018-07-12T00:18:28.638Z,0.00
2018-07-12T00:19:28.623Z,0.00
2018-07-12T00:20:28.609Z,0.00
2018-07-12T00:21:28.592Z,0.00
2018-07-12T00:22:28.576Z,0.00
2018-07-12T00:23:28.562Z,0.00
2018-07-12T00:24:28.547Z,0.00
2018-07-12T00:25:28.531Z,0.00
2018-07-12T00:26:28.518Z,0.00
2018-07-12T00:27:28.501Z,0.00
2018-07-12T00:28:28.492Z,0.00
2018-07-12T00:29:28.469Z,0.00
2018-07-12T00:30:28.455Z,0.00
2018-07-12T00:31:28.442Z,0.00
2018-07-12T00:32:28.426Z,0.00
2018-07-12T00:33:28.411Z,0.00
2018-07-12T00:34:28.403Z,0.00
2018-07-12T00:35:28.433Z,0.00
2018-07-12T00:36:28.366Z,0.00
2018-07-12T00:37:28.349Z,0.00
2018-07-12T00:38:28.344Z,0.00
2018-07-12T00:39:28.321Z,0.00
2018-07-12T00:40:28.306Z,0.00
2018-07-12T00:41:28.293Z,0.00
2018-07-12T00:42:28.277Z,0.00
2018-07-12T00:43:28.261Z,0.00
2018-07-12T00:44:28.246Z,0.00
2018-07-12T00:45:28.231Z,0.00
2018-07-12T00:46:28.215Z,0.00
2018-07-12T00:47:28.200Z,0.00
2018-07-12T00:48:28.185Z,0.00
2018-07-12T00:49:28.171Z,0.00
2018-07-12T00:50:28.156Z,0.00
2018-07-12T00:51:28.139Z,0.00
2018-07-12T00:52:28.123Z,0.00
2018-07-12T00:53:28.109Z,0.00
2018-07-12T00:54:28.098Z,0.00
2018-07-12T00:55:28.080Z,0.00
2018-07-12T00:56:28.063Z,0.00
2018-07-12T00:57:28.056Z,0.00
2018-07-12T00:58:28.033Z,0.00
2018-07-12T00:59:28.019Z,0.00
2018-07-12T01:00:28.003Z,0.00
2018-07-12T01:01:27.987Z,0.00
2018-07-12T01:02:27.971Z,0.00
2018-07-12T01:03:27.961Z,0.00
2018-07-12T01:04:27.942Z,0.00
2018-07-12T01:05:27.926Z,0.00
2018-07-12T01:06:27.913Z,0.00
2018-07-12T01:07:27.897Z,0.00
2018-07-12T01:08:27.889Z,0.00
2018-07-12T01:09:27.864Z,0.00
2018-07-12T01:10:27.849Z,0.00
2018-07-12T01:11:27.842Z,0.00
2018-07-12T01:12:27.820Z,0.00
2018-07-12T01:13:27.806Z,0.00
2018-07-12T01:14:27.792Z,0.00
2018-07-12T01:15:27.773Z,0.00
2018-07-12T01:16:27.759Z,0.00
2018-07-12T01:17:27.744Z,0.00
2018-07-12T01:18:27.732Z,0.00
2018-07-12T01:19:27.715Z,0.00
2018-07-12T01:20:27.706Z,0.00
2018-07-12T01:21:27.692Z,0.00
2018-07-12T01:22:27.667Z,0.00
2018-07-12T01:23:27.655Z,0.00
2018-07-12T01:24:27.637Z,0.00
2018-07-12T01:25:27.620Z,0.00
2018-07-12T01:26:27.606Z,0.00
2018-07-12T01:27:27.592Z,0.00
2018-07-12T01:28:27.576Z,0.00
2018-07-12T01:29:27.560Z,0.00
2018-07-12T01:30:27.544Z,0.00
2018-07-12T01:31:27.539Z,0.00
2018-07-12T01:32:27.517Z,0.00
2018-07-12T01:33:27.498Z,0.00
2018-07-12T01:34:27.496Z,0.00
2018-07-12T01:35:27.467Z,0.00
2018-07-12T01:36:27.456Z,0.00
2018-07-12T01:37:27.438Z,0.00
2018-07-12T01:38:27.422Z,0.00
2018-07-12T01:39:27.415Z,0.00
2018-07-12T01:40:27.392Z,0.00
2018-07-12T01:41:27.379Z,0.00
2018-07-12T01:42:27.369Z,0.00
2018-07-12T01:43:27.348Z,0.00
2018-07-12T01:44:27.329Z,0.00
2018-07-12T01:45:27.313Z,0.00
2018-07-12T01:46:27.300Z,0.00
2018-07-12T01:47:27.288Z,0.00
2018-07-12T01:48:27.276Z,0.00
2018-07-12T01:49:27.252Z,0.00
2018-07-12T01:50:27.236Z,0.00
2018-07-12T01:51:27.222Z,0.00
2018-07-12T01:52:27.208Z,0.00
2018-07-12T01:53:27.192Z,0.00
2018-07-12T01:54:27.174Z,0.00
2018-07-12T01:55:27.174Z,0.00
2018-07-12T01:56:27.143Z,0.00
2018-07-12T01:57:27.129Z,0.00
2018-07-12T01:58:27.111Z,0.00
2018-07-12T01:59:27.097Z,0.00
2018-07-12T02:00:27.131Z,0.00
2018-07-12T02:01:27.065Z,0.00
2018-07-12T02:02:27.052Z,0.00
2018-07-12T02:03:27.036Z,0.00
2018-07-12T02:04:27.021Z,0.00
2018-07-12T02:05:27.002Z,0.00
2018-07-12T02:06:26.989Z,0.00
2018-07-12T02:07:26.978Z,0.00
2018-07-12T02:08:26.959Z,0.00
2018-07-12T02:09:26.940Z,0.00
2018-07-12T02:10:26.928Z,0.00
2018-07-12T02:11:26.912Z,0.00
2018-07-12T02:12:26.895Z,0.00
2018-07-12T02:13:26.879Z,0.00
2018-07-12T02:14:26.884Z,0.00
2018-07-12T02:15:26.849Z,0.00
2018-07-12T02:16:26.834Z,0.00
2018-07-12T02:17:26.821Z,0.00
2018-07-12T02:18:26.802Z,0.00
2018-07-12T02:19:26.786Z,0.00
2018-07-12T02:20:26.772Z,0.00
2018-07-12T02:21:26.765Z,0.00
2018-07-12T02:22:26.747Z,0.00
2018-07-12T02:23:26.725Z,0.00
2018-07-12T02:24:26.712Z,0.00
2018-07-12T02:25:26.693Z,0.00
2018-07-12T02:26:26.680Z,0.00
2018-07-12T02:27:26.664Z,0.00
2018-07-12T02:28:26.647Z,0.00
2018-07-12T02:29:26.632Z,0.00
2018-07-12T02:30:26.615Z,0.00
2018-07-12T02:31:26.599Z,0.00
2018-07-12T02:32:26.590Z,0.00
2018-07-12T02:33:26.571Z,0.00
2018-07-12T02:34:26.557Z,0.00
2018-07-12T02:35:26.547Z,0.00
2018-07-12T02:36:26.547Z,0.00
2018-07-12T02:37:26.513Z,0.00
2018-07-12T02:38:26.490Z,0.00
2018-07-12T02:39:26.476Z,0.00
2018-07-12T02:40:26.460Z,0.00
2018-07-12T02:41:26.444Z,0.00
2018-07-12T02:42:26.429Z,0.00
2018-07-12T02:43:26.414Z,0.00
2018-07-12T02:44:26.399Z,0.00
2018-07-12T02:45:26.381Z,0.00
2018-07-12T02:46:26.369Z,0.00
2018-07-12T02:47:26.352Z,0.00
2018-07-12T02:48:26.404Z,0.00
2018-07-12T02:49:26.320Z,0.00
2018-07-12T02:50:26.304Z,0.00
2018-07-12T02:51:26.288Z,0.00
2018-07-12T02:52:26.273Z,0.00
2018-07-12T02:53:26.266Z,0.00
2018-07-12T02:54:26.253Z,0.00
2018-07-12T02:55:26.226Z,0.00
2018-07-12T02:56:26.211Z,0.00
2018-07-12T02:57:26.195Z,0.00
2018-07-12T02:58:26.179Z,0.00
2018-07-12T02:59:26.164Z,0.00
2018-07-12T03:00:26.151Z,0.00
2018-07-12T03:01:26.131Z,0.00
2018-07-12T03:02:26.115Z,0.00
2018-07-12T03:03:26.100Z,0.00
2018-07-12T03:04:26.087Z,0.00
2018-07-12T03:05:26.068Z,0.00
2018-07-12T03:06:26.062Z,0.00
2018-07-12T03:07:26.037Z,0.00
2018-07-12T03:08:26.021Z,0.00
2018-07-12T03:09:26.022Z,0.00
2018-07-12T03:10:25.989Z,0.00
2018-07-12T03:11:25.977Z,0.00
2018-07-12T03:12:25.961Z,0.00
2018-07-12T03:13:25.944Z,0.00
2018-07-12T03:14:25.929Z,5.63
2018-07-12T03:15:25.915Z,5.63
2018-07-12T03:16:25.895Z,5.63
2018-07-12T03:17:25.879Z,5.63
2018-07-12T03:18:25.863Z,5.63
2018-07-12T03:19:25.849Z,5.63
2018-07-12T03:20:25.833Z,5.63
2018-07-12T03:21:25.816Z,5.63
2018-07-12T03:22:25.902Z,5.63
2018-07-12T03:23:25.785Z,5.63
2018-07-12T03:24:25.769Z,11.25
2018-07-12T03:25:25.753Z,11.25
2018-07-12T03:26:25.737Z,11.25
2018-07-12T03:27:25.721Z,11.25
2018-07-12T03:28:25.707Z,11.25
2018-07-12T03:29:25.689Z,11.25
2018-07-12T03:30:25.676Z,16.88
2018-07-12T03:31:25.665Z,16.88
2018-07-12T03:32:25.645Z,16.88
2018-07-12T03:33:25.633Z,16.88
2018-07-12T03:34:25.612Z,16.88
2018-07-12T03:35:25.596Z,16.88
2018-07-12T03:36:25.581Z,22.50
2018-07-12T03:37:25.564Z,22.50
2018-07-12T03:38:25.554Z,22.50
2018-07-12T03:39:25.534Z,22.50
2018-07-12T03:40:25.557Z,28.13
2018-07-12T03:41:25.510Z,28.13
2018-07-12T03:42:25.484Z,28.13
2018-07-12T03:43:25.473Z,33.75
2018-07-12T03:44:25.459Z,33.75
2018-07-12T03:45:25.437Z,33.75
2018-07-12T03:46:25.421Z,39.38
2018-07-12T03:47:25.405Z,39.38
2018-07-12T03:48:25.392Z,45.00
2018-07-12T03:49:25.384Z,45.00
2018-07-12T03:50:25.361Z,45.00
2018-07-12T03:51:25.353Z,50.63
2018-07-12T03:52:25.330Z,50.63
2018-07-12T03:53:25.328Z,50.63
2018-07-12T03:54:25.296Z,56.25
2018-07-12T03:55:25.294Z,56.25
2018-07-12T03:56:25.262Z,61.88
2018-07-12T03:57:25.251Z,61.88
2018-07-12T03:58:25.233Z,61.88
2018-07-12T03:59:25.228Z,67.50
2018-07-12T04:00:25.212Z,67.50
2018-07-12T04:01:25.187Z,67.50
2018-07-12T04:02:25.176Z,73.13
2018-07-12T04:03:25.163Z,73.13
2018-07-12T04:04:25.139Z,78.75
2018-07-12T04:05:25.124Z,78.75
2018-07-12T04:06:25.109Z,78.75
2018-07-12T04:07:25.093Z,84.38
2018-07-12T04:08:25.077Z,84.38
2018-07-12T04:09:25.062Z,84.38
2018-07-12T04:10:25.045Z,90.00
2018-07-12T04:11:25.030Z,90.00
2018-07-12T04:12:25.014Z,95.63
2018-07-12T04:13:24.995Z,95.63
2018-07-12T04:14:24.982Z,95.63
2018-07-12T04:15:24.965Z,101.25
2018-07-12T04:16:24.949Z,101.25
2018-07-12T04:17:24.933Z,106.88
2018-07-12T04:18:24.917Z,106.88
2018-07-12T04:19:24.901Z,106.88
2018-07-12T04:20:24.889Z,112.50
2018-07-12T04:21:24.870Z,112.50
2018-07-12T04:22:24.852Z,118.13
2018-07-12T04:23:24.848Z,123.75
2018-07-12T04:24:24.823Z,123.75
2018-07-12T04:25:24.807Z,129.38
2018-07-12T04:26:24.790Z,135.00
2018-07-12T04:27:24.783Z,135.00
2018-07-12T04:28:24.760Z,135.00
2018-07-12T04:29:24.749Z,140.63
2018-07-12T04:30:24.730Z,140.63
2018-07-12T04:31:24.714Z,146.25
2018-07-12T04:32:24.697Z,146.25
2018-07-12T04:33:24.683Z,146.25
2018-07-12T04:34:24.671Z,151.88
2018-07-12T04:35:24.701Z,151.88
2018-07-12T04:36:24.635Z,151.88
2018-07-12T04:37:24.620Z,157.50
2018-07-12T04:38:24.603Z,157.50
2018-07-12T04:39:24.588Z,163.13
2018-07-12T04:40:24.578Z,168.75
2018-07-12T04:41:24.558Z,168.75
2018-07-12T04:42:24.544Z,174.38
2018-07-12T04:43:24.525Z,180.00
2018-07-12T04:44:24.511Z,185.63
2018-07-12T04:45:24.495Z,185.63
2018-07-12T04:46:24.479Z,191.25
2018-07-12T04:47:25.198Z,191.25
2018-07-12T04:48:24.452Z,191.25
2018-07-12T04:49:24.450Z,196.88
2018-07-12T04:50:24.417Z,196.88
2018-07-12T04:51:24.404Z,202.50
2018-07-12T04:52:24.388Z,208.13
2018-07-12T04:53:24.372Z,208.13
2018-07-12T04:54:24.365Z,208.13
2018-07-12T04:55:24.341Z,213.75
2018-07-12T04:56:24.326Z,213.75
2018-07-12T04:57:24.313Z,213.75
2018-07-12T04:58:24.416Z,213.75
2018-07-12T04:59:24.280Z,219.38
2018-07-12T05:00:24.264Z,219.38
2018-07-12T05:01:24.260Z,219.38
2018-07-12T05:02:24.234Z,219.38
2018-07-12T05:03:24.220Z,225.00
2018-07-12T05:04:24.203Z,225.00
2018-07-12T05:05:24.187Z,230.63
2018-07-12T05:06:24.175Z,230.63
2018-07-12T05:07:24.362Z,230.63
2018-07-12T05:08:24.151Z,236.25
2018-07-12T05:09:24.126Z,241.88
2018-07-12T05:10:24.168Z,241.88
2018-07-12T05:11:24.097Z,247.50
2018-07-12T05:12:24.083Z,253.13
2018-07-12T05:13:24.068Z,253.13
2018-07-12T05:14:24.059Z,258.75
2018-07-12T05:15:24.038Z,258.75
2018-07-12T05:16:24.040Z,264.38
2018-07-12T05:17:24.007Z,270.00
2018-07-12T05:18:23.995Z,270.00
2018-07-12T05:19:23.975Z,275.63
2018-07-12T05:20:23.967Z,281.25
2018-07-12T05:21:23.946Z,286.88
2018-07-12T05:22:23.939Z,286.88
2018-07-12T05:23:23.926Z,286.88
2018-07-12T05:24:23.902Z,286.88
2018-07-12T05:25:23.894Z,292.50
2018-07-12T05:26:23.869Z,298.13
2018-07-12T05:27:23.871Z,298.13
2018-07-12T05:28:23.841Z,303.75
2018-07-12T05:29:23.828Z,309.38
2018-07-12T05:30:23.811Z,309.38
2018-07-12T05:31:23.796Z,315.00
2018-07-12T05:32:23.783Z,320.63
2018-07-12T05:33:23.766Z,326.25
2018-07-12T05:34:23.752Z,331.88
2018-07-12T05:35:23.738Z,331.88
2018-07-12T05:36:23.722Z,337.50
2018-07-12T05:37:23.707Z,337.50
2018-07-12T05:38:23.691Z,343.13
2018-07-12T05:39:23.725Z,348.75
2018-07-12T05:40:23.670Z,348.75
2018-07-12T05:41:23.656Z,354.38
2018-07-12T05:42:23.632Z,365.63
2018-07-12T05:43:23.621Z,393.75
2018-07-12T05:44:23.602Z,506.25
2018-07-12T05:45:23.589Z,691.88
2018-07-12T05:46:23.581Z,860.63
2018-07-12T05:47:23.561Z,894.38
2018-07-12T05:48:23.545Z,928.13
2018-07-12T05:49:23.530Z,978.75
2018-07-12T05:50:23.516Z,1063.13
2018-07-12T05:51:23.504Z,1141.88
2018-07-12T05:52:23.489Z,1181.25
2018-07-12T05:53:23.476Z,1192.50
2018-07-12T05:54:23.462Z,1136.25
2018-07-12T05:55:23.451Z,1113.75
2018-07-12T05:56:23.439Z,1175.63
2018-07-12T05:57:23.482Z,1119.38
2018-07-12T05:58:23.415Z,1243.13
2018-07-12T05:59:23.411Z,1361.25
2018-07-12T06:00:23.400Z,1614.38
2018-07-12T06:01:23.379Z,1693.13
2018-07-12T06:02:23.378Z,1670.63
2018-07-12T06:03:23.366Z,1608.75
2018-07-12T06:04:23.358Z,1518.75
2018-07-12T06:05:23.348Z,1496.25
2018-07-12T06:06:23.338Z,1507.50
2018-07-12T06:07:23.329Z,1535.63
2018-07-12T06:08:23.312Z,1524.38
2018-07-12T06:09:23.304Z,1558.13
2018-07-12T06:10:23.307Z,1580.63
2018-07-12T06:11:23.288Z,1608.75
2018-07-12T06:12:23.279Z,1648.13
2018-07-12T06:13:23.272Z,1648.13
2018-07-12T06:14:23.270Z,1631.25
2018-07-12T06:15:23.265Z,1755.00
2018-07-12T06:16:23.250Z,1755.00
2018-07-12T06:17:23.245Z,1715.63
2018-07-12T06:18:23.238Z,1766.25
2018-07-12T06:19:23.230Z,1856.25
2018-07-12T06:20:23.223Z,1828.13
2018-07-12T06:21:23.218Z,1884.38
2018-07-12T06:22:23.216Z,1895.63
2018-07-12T06:23:23.203Z,1906.88
2018-07-12T06:24:23.200Z,1873.13
2018-07-12T06:25:23.192Z,1940.63
2018-07-12T06:26:23.188Z,1963.13
2018-07-12T06:27:23.182Z,1923.75
2018-07-12T06:28:23.182Z,1957.50
2018-07-12T06:29:23.171Z,1023.75
2018-07-12T06:30:23.169Z,1991.25
2018-07-12T06:31:23.172Z,725.63
2018-07-12T06:32:23.161Z,821.25
2018-07-12T06:33:23.163Z,1878.75
2018-07-12T06:34:23.149Z,1080.00
2018-07-12T06:35:23.145Z,2115.00
2018-07-12T06:36:23.141Z,2165.63
2018-07-12T06:37:23.137Z,2081.25
2018-07-12T06:38:23.130Z,2182.50
2018-07-12T06:39:23.128Z,2261.25
2018-07-12T06:40:23.125Z,2255.63
2018-07-12T06:41:23.117Z,2193.75
2018-07-12T06:42:23.114Z,2086.88
2018-07-12T06:43:23.112Z,2160.00
2018-07-12T06:44:23.110Z,2036.25
2018-07-12T06:45:23.109Z,2081.25
2018-07-12T06:46:23.101Z,2148.75
2018-07-12T06:47:23.096Z,2216.25
2018-07-12T06:48:23.093Z,2160.00
2018-07-12T06:49:23.090Z,2120.63
2018-07-12T06:50:23.095Z,2216.25
2018-07-12T06:51:23.087Z,2193.75
2018-07-12T06:52:23.092Z,2233.13
2018-07-12T06:53:23.089Z,2261.25
2018-07-12T06:54:23.077Z,2295.00
2018-07-12T06:55:23.077Z,2182.50
2018-07-12T06:56:23.075Z,2115.00
2018-07-12T06:57:23.072Z,2266.88
2018-07-12T06:58:23.078Z,2261.25
2018-07-12T06:59:23.069Z,2205.00
2018-07-12T07:00:23.071Z,2255.63
2018-07-12T07:01:23.064Z,2131.88
2018-07-12T07:02:23.065Z,2148.75
2018-07-12T07:03:23.064Z,2193.75
2018-07-12T07:04:23.065Z,2283.75
2018-07-12T07:05:23.060Z,2261.25
2018-07-12T07:06:23.065Z,1929.38
2018-07-12T07:07:23.059Z,1473.75
2018-07-12T07:08:23.060Z,1338.75
2018-07-12T07:09:23.061Z,1136.25
2018-07-12T07:10:23.059Z,1226.25
2018-07-12T07:11:23.078Z,1653.75
2018-07-12T07:12:23.059Z,2002.50
2018-07-12T07:13:23.060Z,2407.50
2018-07-12T07:14:23.056Z,2458.13
2018-07-12T07:15:23.055Z,2610.00
2018-07-12T07:16:23.068Z,2446.88
2018-07-12T07:17:23.203Z,2396.25
2018-07-12T07:18:23.054Z,2486.25
2018-07-12T07:19:23.051Z,2463.75
2018-07-12T07:20:23.052Z,2542.50
2018-07-12T07:21:23.049Z,2660.63
2018-07-12T07:22:23.050Z,2795.63
2018-07-12T07:23:23.057Z,2947.50
2018-07-12T07:24:23.049Z,3060.00
2018-07-12T07:25:23.047Z,2801.25
2018-07-12T07:26:23.068Z,2626.88
2018-07-12T07:27:23.049Z,2728.13
2018-07-12T07:28:23.055Z,2581.88
2018-07-12T07:29:23.049Z,2593.13
2018-07-12T07:30:23.057Z,2328.75
2018-07-12T07:31:23.049Z,1957.50
2018-07-12T07:32:23.108Z,1400.63
2018-07-12T07:33:23.061Z,1164.38
2018-07-12T07:34:23.051Z,1361.25
2018-07-12T07:35:23.065Z,2323.13
2018-07-12T07:36:23.051Z,1935.00
2018-07-12T07:37:23.051Z,1440.00
2018-07-12T07:38:23.051Z,1113.75
2018-07-12T07:39:23.052Z,1721.25
2018-07-12T07:40:23.053Z,1434.38
2018-07-12T07:41:23.067Z,1867.50
2018-07-12T07:42:23.049Z,635.63
2018-07-12T07:43:23.142Z,624.38
2018-07-12T07:44:23.049Z,630.00
2018-07-12T07:45:23.045Z,630.00
2018-07-12T07:46:23.045Z,618.75
2018-07-12T07:47:23.051Z,928.13
2018-07-12T07:48:23.044Z,911.25
2018-07-12T07:49:23.048Z,781.88
2018-07-12T07:50:23.039Z,618.75
2018-07-12T07:51:23.033Z,613.13
2018-07-12T07:52:23.030Z,618.75
2018-07-12T07:53:23.036Z,624.38
2018-07-12T07:54:23.353Z,624.38
2018-07-12T07:55:23.746Z,630.00
2018-07-12T07:56:23.356Z,641.25
2018-07-12T07:57:23.020Z,731.25
2018-07-12T07:58:23.338Z,708.75
2018-07-12T08:01:23.719Z,624.38
2018-07-12T08:02:23.323Z,652.50
2018-07-12T08:03:23.092Z,1001.25
2018-07-12T08:04:23.185Z,945.00
2018-07-12T08:05:23.293Z,669.38
2018-07-12T08:06:23.338Z,725.63
2018-07-12T08:07:23.514Z,736.88
2018-07-12T08:08:22.967Z,658.13
2018-07-12T08:09:23.006Z,1001.25
2018-07-12T08:10:22.956Z,973.13
2018-07-12T08:11:22.945Z,759.38
2018-07-12T08:12:22.943Z,686.25
2018-07-12T08:13:22.943Z,894.38
2018-07-12T08:14:22.931Z,826.88
2018-07-12T08:15:22.926Z,618.75
2018-07-12T08:16:23.034Z,748.13
2018-07-12T08:17:22.925Z,641.25
2018-07-12T08:18:22.909Z,618.75
2018-07-12T08:19:22.906Z,618.75
2018-07-12T08:20:22.898Z,624.38
2018-07-12T08:21:22.896Z,613.13
2018-07-12T08:22:22.902Z,607.50
2018-07-12T08:23:22.889Z,607.50
2018-07-12T08:24:22.873Z,596.25
2018-07-12T08:25:22.866Z,607.50
2018-07-12T08:26:22.861Z,601.88
2018-07-12T08:27:22.855Z,596.25
2018-07-12T08:28:22.850Z,596.25
2018-07-12T08:29:22.841Z,607.50
2018-07-12T08:30:22.834Z,607.50
2018-07-12T08:31:22.845Z,613.13
2018-07-12T08:32:22.819Z,613.13
2018-07-12T08:33:22.877Z,613.13
2018-07-12T08:34:22.808Z,630.00
2018-07-12T08:35:22.799Z,635.63
2018-07-12T08:36:22.793Z,646.88
2018-07-12T08:37:22.788Z,714.38
2018-07-12T08:38:22.779Z,759.38
2018-07-12T08:39:22.776Z,703.13
2018-07-12T08:40:22.774Z,675.00
2018-07-12T08:41:22.755Z,691.88
2018-07-12T08:42:22.788Z,703.13
2018-07-12T08:43:22.753Z,680.63
2018-07-12T08:44:22.749Z,691.88
2018-07-12T08:45:22.727Z,731.25
2018-07-12T08:47:22.715Z,669.38
2018-07-12T08:48:22.756Z,669.38
2018-07-12T08:49:22.697Z,691.88
2018-07-12T08:50:23.231Z,686.25
2018-07-12T08:51:22.886Z,697.50
2018-07-12T08:52:22.790Z,973.13
2018-07-12T08:53:22.880Z,703.13
2018-07-12T08:54:22.872Z,815.63
2018-07-12T08:55:22.867Z,804.38
2018-07-12T08:56:22.858Z,826.88
2018-07-12T08:57:22.640Z,753.75
2018-07-12T08:58:22.632Z,815.63
2018-07-12T08:59:22.623Z,843.75
2018-07-12T09:00:22.626Z,877.50
2018-07-12T09:01:22.609Z,1243.13
2018-07-12T09:02:22.606Z,2615.63
2018-07-12T09:03:22.592Z,1839.38
2018-07-12T09:04:22.595Z,978.75
2018-07-12T09:05:22.595Z,1175.63
2018-07-12T09:06:22.578Z,1327.50
2018-07-12T09:07:22.571Z,832.50
2018-07-12T09:08:22.566Z,2458.13
2018-07-12T09:09:22.559Z,2773.13
2018-07-12T09:10:22.551Z,1164.38
2018-07-12T09:11:22.539Z,1676.25
2018-07-12T09:12:22.531Z,1237.50
2018-07-12T09:13:22.533Z,1023.75
2018-07-12T09:14:22.530Z,748.13
2018-07-12T09:15:22.529Z,916.88
2018-07-12T09:16:22.521Z,1046.25
2018-07-12T09:17:22.518Z,2880.00
2018-07-12T09:18:22.499Z,2480.63
2018-07-12T09:19:22.495Z,1406.25
2018-07-12T09:20:22.486Z,1524.38
2018-07-12T09:21:22.481Z,2930.63
2018-07-12T09:22:22.473Z,1310.63
2018-07-12T09:23:22.470Z,1096.88
2018-07-12T09:24:22.467Z,1119.38
2018-07-12T09:25:22.466Z,736.88
2018-07-12T09:26:22.456Z,770.63
2018-07-12T09:27:22.450Z,939.38
2018-07-12T09:28:22.446Z,1552.50
2018-07-12T09:29:22.440Z,1485.00
2018-07-12T09:30:22.435Z,1451.25
2018-07-12T09:31:22.430Z,2171.25
2018-07-12T09:32:22.424Z,894.38
2018-07-12T09:33:22.418Z,2205.00
2018-07-12T09:34:22.415Z,3121.88
2018-07-12T09:35:22.411Z,2373.75
2018-07-12T09:36:22.412Z,1040.63
2018-07-12T09:37:22.401Z,1074.38
2018-07-12T09:38:22.393Z,1215.00
2018-07-12T09:39:22.393Z,1299.38
2018-07-12T09:40:22.385Z,928.13
2018-07-12T09:41:22.378Z,759.38
2018-07-12T09:42:22.380Z,669.38
2018-07-12T09:43:22.377Z,607.50
2018-07-12T09:44:22.368Z,641.25
2018-07-12T09:45:22.366Z,691.88
2018-07-12T09:46:22.395Z,697.50
2018-07-12T09:47:22.367Z,748.13
2018-07-12T09:48:22.349Z,922.50
2018-07-12T09:49:22.424Z,1333.13
2018-07-12T09:50:22.350Z,1119.38
2018-07-12T09:51:22.336Z,1108.13
2018-07-12T09:52:22.325Z,1147.50
2018-07-12T09:53:22.317Z,1091.25
2018-07-12T09:54:22.321Z,776.25
2018-07-12T09:55:22.306Z,618.75
2018-07-12T09:56:22.482Z,585.00
2018-07-12T09:57:22.299Z,635.63
2018-07-12T09:58:22.293Z,686.25
2018-07-12T09:59:22.290Z,736.88
2018-07-12T10:00:22.287Z,916.88
2018-07-12T10:01:22.355Z,1085.63
2018-07-12T10:02:22.273Z,967.50
2018-07-12T10:03:22.267Z,922.50
2018-07-12T10:04:22.270Z,916.88
2018-07-12T10:05:22.258Z,916.88
2018-07-12T10:06:22.252Z,945.00
2018-07-12T10:07:22.249Z,1057.50
2018-07-12T10:08:22.240Z,1693.13
2018-07-12T10:09:22.232Z,3735.00
2018-07-12T10:10:22.229Z,2418.75
2018-07-12T10:11:22.227Z,1299.38
2018-07-12T10:12:22.220Z,956.25
2018-07-12T10:13:22.215Z,4415.63
2018-07-12T10:14:22.216Z,4438.13
2018-07-12T10:15:22.204Z,4325.63
2018-07-12T10:16:22.200Z,3768.75
2018-07-12T10:17:22.195Z,3183.75
2018-07-12T10:18:22.193Z,3256.88
2018-07-12T10:19:22.194Z,3577.50
2018-07-12T10:20:22.188Z,1541.25
2018-07-12T10:21:22.183Z,967.50
2018-07-12T10:22:22.189Z,905.63
2018-07-12T10:23:22.191Z,4106.25
2018-07-12T10:24:22.184Z,4106.25
2018-07-12T10:25:22.177Z,3768.75
2018-07-12T10:26:22.176Z,4106.25
2018-07-12T10:27:22.174Z,4342.50
2018-07-12T10:28:22.228Z,4449.38
2018-07-12T10:29:22.179Z,4483.13
2018-07-12T10:30:22.175Z,3763.13
2018-07-12T10:31:22.176Z,4156.88
2018-07-12T10:32:22.175Z,1788.75
2018-07-12T10:33:22.176Z,871.88
2018-07-12T10:34:22.180Z,821.25
2018-07-12T10:35:22.193Z,3881.25
2018-07-12T10:36:22.186Z,4280.63
2018-07-12T10:37:22.199Z,4230.00
2018-07-12T10:38:22.184Z,4156.88
2018-07-12T10:39:22.187Z,3920.63
2018-07-12T10:40:22.188Z,3988.13
2018-07-12T10:41:22.185Z,4066.88
2018-07-12T10:42:22.190Z,4185.00
2018-07-12T10:43:22.189Z,4230.00
2018-07-12T10:44:22.208Z,4381.88
2018-07-12T10:45:22.193Z,4342.50
2018-07-12T10:46:22.204Z,4156.88
2018-07-12T10:47:22.199Z,3954.38
2018-07-12T10:48:22.202Z,4224.38
2018-07-12T10:49:22.204Z,4387.50
2018-07-12T10:50:22.215Z,4083.75
2018-07-12T10:51:22.219Z,4505.63
2018-07-12T10:52:22.217Z,3628.13
2018-07-12T10:53:22.218Z,1698.75
2018-07-12T10:54:22.227Z,4168.13
2018-07-12T10:55:22.240Z,4050.00
2018-07-12T10:56:22.232Z,4128.75
2018-07-12T10:57:22.246Z,4134.38
2018-07-12T10:58:22.239Z,3982.50
2018-07-12T10:59:22.251Z,1186.88
2018-07-12T11:00:22.260Z,1631.25
2018-07-12T11:01:22.254Z,978.75
2018-07-12T11:02:22.261Z,3026.25
2018-07-12T11:03:22.264Z,4618.13
2018-07-12T11:04:22.268Z,4387.50
2018-07-12T11:05:22.277Z,1738.13
2018-07-12T11:06:22.273Z,736.88
2018-07-12T11:07:22.281Z,748.13
2018-07-12T11:08:22.288Z,787.50
2018-07-12T11:09:22.286Z,4196.25
2018-07-12T11:10:22.345Z,4410.00
2018-07-12T11:11:22.300Z,4353.75
2018-07-12T11:12:22.302Z,3729.38
2018-07-12T11:13:22.298Z,1254.38
2018-07-12T11:14:22.303Z,1462.50
2018-07-12T11:15:22.312Z,3380.63
2018-07-12T11:16:22.326Z,4010.63
2018-07-12T11:17:22.308Z,2238.75
2018-07-12T11:18:22.315Z,3341.25
2018-07-12T11:19:22.317Z,2953.13
2018-07-12T11:20:22.321Z,883.13
2018-07-12T11:21:22.321Z,596.25
2018-07-12T11:22:22.325Z,556.88
2018-07-12T11:23:22.330Z,573.75
2018-07-12T11:24:22.332Z,613.13
2018-07-12T11:25:22.332Z,641.25
2018-07-12T11:26:22.336Z,663.75
2018-07-12T11:27:22.337Z,736.88
2018-07-12T11:28:22.337Z,922.50
2018-07-12T11:29:22.340Z,1923.75
2018-07-12T11:30:22.400Z,3645.00
2018-07-12T11:31:22.358Z,3892.50
2018-07-12T11:32:22.345Z,1771.88
2018-07-12T11:33:22.354Z,1085.63
2018-07-12T11:34:22.349Z,731.25
2018-07-12T11:35:22.345Z,652.50
2018-07-12T11:36:22.415Z,585.00
2018-07-12T11:37:22.351Z,562.50
2018-07-12T11:38:22.352Z,596.25
2018-07-12T11:39:22.359Z,1023.75
2018-07-12T11:40:22.343Z,3335.63
2018-07-12T11:41:22.349Z,3594.38
2018-07-12T11:42:22.343Z,3802.50
2018-07-12T11:43:22.351Z,3690.00
2018-07-12T11:44:22.341Z,3560.63
2018-07-12T11:45:22.344Z,3605.63
2018-07-12T11:46:22.341Z,2463.75
2018-07-12T11:47:22.336Z,2120.63
2018-07-12T11:48:22.344Z,843.75
2018-07-12T11:49:22.350Z,714.38
2018-07-12T11:50:22.348Z,652.50
2018-07-12T11:51:22.337Z,1051.88
2018-07-12T11:52:22.336Z,815.63
2018-07-12T11:53:22.332Z,720.00
2018-07-12T11:54:22.343Z,669.38
2018-07-12T11:55:22.341Z,658.13
2018-07-12T11:56:22.332Z,646.88
2018-07-12T11:57:22.336Z,663.75
2018-07-12T11:58:22.342Z,708.75
2018-07-12T11:59:22.324Z,753.75
2018-07-12T12:00:22.321Z,900.00
2018-07-12T12:01:22.390Z,945.00
2018-07-12T12:02:22.323Z,973.13
2018-07-12T12:03:22.322Z,939.38
2018-07-12T12:04:22.315Z,916.88
2018-07-12T12:05:22.306Z,922.50
2018-07-12T12:06:22.310Z,928.13
2018-07-12T12:07:22.303Z,922.50
2018-07-12T12:08:22.307Z,905.63
2018-07-12T12:09:22.301Z,860.63
2018-07-12T12:10:22.291Z,838.13
2018-07-12T12:11:22.288Z,826.88
2018-07-12T12:12:22.283Z,804.38
2018-07-12T12:13:22.287Z,776.25
2018-07-12T12:14:22.273Z,748.13
2018-07-12T12:15:22.271Z,697.50
2018-07-12T12:16:22.268Z,703.13
2018-07-12T12:17:22.263Z,714.38
2018-07-12T12:18:22.269Z,759.38
2018-07-12T12:19:22.306Z,787.50
2018-07-12T12:20:22.265Z,770.63
2018-07-12T12:21:22.262Z,804.38
2018-07-12T12:22:22.247Z,832.50
2018-07-12T12:23:22.241Z,877.50
2018-07-12T12:24:22.240Z,916.88
2018-07-12T12:25:22.255Z,916.88
2018-07-12T12:26:22.282Z,877.50
2018-07-12T12:27:22.223Z,849.38
2018-07-12T12:28:22.241Z,765.00
2018-07-12T12:29:22.211Z,663.75
2018-07-12T12:30:22.219Z,523.13
2018-07-12T12:31:22.206Z,472.50
2018-07-12T12:32:22.202Z,427.50
2018-07-12T12:33:22.219Z,382.50
2018-07-12T12:34:22.191Z,365.63
2018-07-12T12:35:22.187Z,337.50
2018-07-12T12:36:22.180Z,315.00
2018-07-12T12:37:22.178Z,292.50
2018-07-12T12:38:22.167Z,270.00